Swanson Ranch 3, NV

10:11 AM PDT en Julio 26, 2014 (GMT -0700)
Eureka Airport (K05U) Alt 5958 ft | 39.60 °N, 116.01 °W | Change Station
Aviso en curso: Special Statement

Current weather conditions updated 2 hours ago

Clear
Despejado
61 ° F
Sensación térmica 61 ° F
N
0
Viento Variable Viento desde Norte

Hoy se prevé una temperatura muy similar a la de ayer.

Hoy
Alta -- | Baja -- ° F
--% Posibilidad de precipitaciones
Ayer
Alta -- | Baja -- ° F
Precip. -- pul
5:42 AM 8:09 PM
Creciente menguante, 0% visible
Presión 30.27 pul
Visibilidad 10.0 Millas
Nubes Despejado
Punto de rocío 27 ° F
Humedad 27%
Precipitaciones 0.00 pul
Espesor de la nieve No disponible.
UV 1 de una escala de 12
Polen 6.30 de una escala de 12
Calidad del aire No disponible.
Flu Activity No disponible.
METAR K05U 261415Z AUTO 00000KT 10SM CLR 16/M03 A3027 RMK AO1

More Conditions Fewer Conditions

Presión 30.27 pul
Visibilidad 10.0 Millas
Nubes Despejado
Punto de rocío 27 ° F
Humedad 27%
Precipitaciones 0.00 pul
Espesor de la nieve No disponible.
UV 1 de una escala de 12
Polen 6.30 de una escala de 12
Calidad del aire No disponible.
Flu Activity No disponible.
METAR K05U 261415Z AUTO 00000KT 10SM CLR 16/M03 A3027 RMK AO1

More Conditions Fewer Conditions

10-Day Weather Forecast

Almanac

Astronomía

Jul. 26, 2014 Salida Puesta
Hora real 5:42 AM PDT 8:09 PM PDT
Crepúsculo civil 5:11 AM PDT 8:39 PM PDT
Crepúsculo náutico 4:33 AM PDT 9:17 PM PDT
Crepúsculo astronómico 3:50 AM PDT 10:00 PM PDT
Luna 5:39 AM PDT 7:46 PM PDT
Horas de luz 15h 28m
Horas de luz
14h 26m
Tomorrow will be 1m 49s shorter.
Creciente menguante, 0% of the Moon is Illuminated
Hoy
Creciente menguante
Jul 26
Nueva
Ago 3
Cuarto creciente
Ago 10
Luna llena
Ago 17
Cuarto menguante

Extremos de hoy

Máximos del estado Bajos del estado

Community

WunderPhotos

Upload Photos

1,737,638 ¡fotos cargadas!

Nearby

Grosos de nieve

Estación Profundido Altura
Lewis Peak 0 in 7400 ft
Diamond Peak 0 in 8000 ft
Green Mountain 0 in 8000 ft
Lamance Creek 0 in 6000 ft
Taylor Canyon 1 in 6200 ft

Actividad de terremotos

Ciudad Distance Mag. Tiempo y dato
No hay informes recientes de la actividad sísmica.
Magnitud mínima muestra es 2,5.

Temperaturas de aguas costeras

Lugar Temperatura
Sin partes meteorológicos de las estaciones

Estaciones meteorológicas cercanas

Ubicación de la estación Temp. Índice de calor Punto de rocío Humedad Viento Precip. Alt Actualizado Tipo
RAWS RED BUTTE NV, Austin, NV 75 ° F 76 ° F 30 ° F 19% Norte  a  0 mph 0.00 pul / hr 5025 ft 8:39 AM PDT MADIS
MesoWest Antelope Valley , Austin, NV 68 ° F - 33 ° F 27% NE  a  4 mph 0.00 pul / hr 4871 ft 8:20 AM PDT MADIS

Show More Stations Show Fewer Stations